Jakarta Observatory, Indonesia

1:48 AM WIB on June 03, 2015 (GMT +0700)
ZOBBIS METEO | | Change Station
CLOSE
Current Station
Personal Weather Station
Location: Jakarta, Indonesia
Elevation: 121 ft
Nearby Weather Stations

Elev 121 ft 6.29 °S, 106.81 °E | Updated 3 minutes ago

Overcast
Overcast
75.6 °F
Feels Like 75 °F
N
0.0
Wind Variable Wind from WNW
Gusts 0.0 mph

Today
High -- | Low -- °F
--% Chance of Precip.
Yesterday
High -- | Low -- °F
Precip. -- in
5:57 AM 5:44 PM
Full, 100% visible
Pressure 29.86 in
Visibility 1.9 miles
Clouds Few 1800 ft
Overcast 2000 ft
Heat Index 75 °F
Dew Point 74 °F
Humidity 95%
Rainfall 0.00 in
Snow Depth Not available.
UV 0 out of 12
Pollen Not available.
Air Quality Not available.
Flu Activity Not available.
METAR WIII 021830Z 25006KT 3000 VCTS BR FEW018CB OVC020 24/23 Q1011 N OSIG RMK CB TO NE AND W

More Conditions Fewer Conditions

Pressure 29.86 in
Visibility 1.9 miles
Clouds Few 1800 ft
Overcast 2000 ft
Heat Index 75 °F
Dew Point 74 °F
Humidity 95%
Rainfall 0.00 in
Snow Depth Not available.
UV 0 out of 12
Pollen Not available.
Air Quality Not available.
Flu Activity Not available.
METAR WIII 021830Z 25006KT 3000 VCTS BR FEW018CB OVC020 24/23 Q1011 N OSIG RMK CB TO NE AND W

More Conditions Fewer Conditions

10-Day Weather Forecast

×

Almanac

Astronomy

Jun. 03, 2015 Rise Set
Actual Time
Civil Twilight
Nautical Twilight
Astronomical Twilight
Moon
Length of Visible Light
Length of Day
Tomorrow will be .
, % of the Moon is Illuminated

Today's Extremes

Country Highs Country Lows

Community

WunderPhotos

Upload Photos

1,825,997 photos uploaded!

WunderBlogs® & News

Nearby

Air Quality

  Air Quality AQ Index Pollutant
Not available.

Snow Depth

Station Depth Elevation

Earthquake Activity

City Distance Mag. Time & Date
Minimum magnitude displayed is 2.5.

Coastal Water Temperatures

Place Temperature

Stations

Nearby Weather Stations

Station Location Temp. Windchill Dew Point Humidity Wind Precip. Elev Updated Type